createdAt,value
2022-12-09T00:00:00.360Z,72.36
2022-12-09T00:02:33.042Z,72.44
2022-12-09T00:05:05.331Z,72.39
2022-12-09T00:07:38.737Z,72.39
2022-12-09T00:10:12.371Z,72.43
2022-12-09T00:12:42.624Z,72.57
2022-12-09T00:15:14.629Z,72.67
2022-12-09T00:17:47.157Z,72.72
2022-12-09T00:20:18.964Z,72.66
2022-12-09T00:22:50.588Z,72.63
2022-12-09T00:25:22.475Z,72.81
2022-12-09T00:27:54.187Z,72.52
2022-12-09T00:30:25.838Z,72.60
2022-12-09T00:32:57.360Z,72.45
2022-12-09T00:35:28.957Z,72.63
2022-12-09T00:38:01.515Z,72.65
2022-12-09T00:40:33.342Z,72.60
2022-12-09T00:43:05.283Z,72.47
2022-12-09T00:45:37.262Z,72.35
2022-12-09T00:48:09.205Z,72.36
2022-12-09T00:50:40.784Z,72.42
2022-12-09T00:53:12.698Z,72.45
2022-12-09T00:55:44.796Z,72.27
2022-12-09T00:58:17.067Z,72.41
2022-12-09T01:00:49.127Z,72.45
2022-12-09T01:03:20.949Z,72.42
2022-12-09T01:05:53.022Z,72.48
2022-12-09T01:08:24.770Z,72.33
2022-12-09T01:10:56.953Z,72.47
2022-12-09T01:13:28.538Z,72.64
2022-12-09T01:16:00.041Z,72.71
2022-12-09T01:18:31.626Z,72.79
2022-12-09T01:21:03.157Z,72.81
2022-12-09T01:23:35.193Z,72.74
2022-12-09T01:26:08.511Z,72.50
2022-12-09T01:28:41.225Z,72.68
2022-12-09T01:31:14.936Z,72.53
2022-12-09T01:33:47.548Z,72.54
2022-12-09T01:36:21.499Z,72.58
2022-12-09T01:38:53.446Z,72.57
2022-12-09T01:41:26.211Z,72.51
2022-12-09T01:44:20.236Z,72.53
2022-12-09T01:46:55.275Z,72.50
2022-12-09T01:49:29.966Z,72.41
2022-12-09T01:52:08.741Z,72.44
2022-12-09T01:54:43.121Z,72.42
2022-12-09T01:57:16.487Z,72.43
2022-12-09T01:59:48.642Z,72.42
2022-12-09T02:02:22.204Z,72.49
2022-12-09T02:04:54.099Z,72.63
2022-12-09T02:07:25.701Z,72.70
2022-12-09T02:09:57.319Z,72.73
2022-12-09T02:12:34.216Z,72.63
2022-12-09T02:15:10.669Z,72.68
2022-12-09T02:17:47.346Z,72.80
2022-12-09T02:20:25.450Z,72.85
2022-12-09T02:23:05.611Z,72.91
2022-12-09T02:25:44.639Z,72.88
2022-12-09T02:28:36.147Z,72.65
2022-12-09T02:31:23.077Z,72.58
2022-12-09T02:34:12.255Z,72.57
2022-12-09T02:36:53.341Z,72.54
2022-12-09T02:39:29.572Z,72.44
2022-12-09T02:42:05.485Z,72.42
2022-12-09T02:44:39.620Z,72.45
2022-12-09T02:47:15.925Z,72.50
2022-12-09T02:49:52.955Z,72.50
2022-12-09T02:52:25.987Z,72.53
2022-12-09T02:54:58.532Z,72.47
2022-12-09T02:57:33.223Z,72.53
2022-12-09T03:00:07.261Z,72.45
2022-12-09T03:02:42.080Z,72.55
2022-12-09T03:05:21.307Z,72.77
2022-12-09T03:08:11.865Z,72.87
2022-12-09T03:10:52.227Z,72.99
2022-12-09T03:13:34.509Z,72.77
2022-12-09T03:16:14.812Z,72.89
2022-12-09T03:18:52.157Z,72.96
2022-12-09T03:21:26.644Z,72.89
2022-12-09T03:23:59.697Z,72.86
2022-12-09T03:26:34.564Z,72.66
2022-12-09T03:29:12.647Z,72.65
2022-12-09T03:31:45.801Z,72.67
2022-12-09T03:34:21.401Z,72.55
2022-12-09T03:36:55.186Z,72.47
2022-12-09T03:39:31.353Z,72.36
2022-12-09T03:42:07.293Z,72.32
2022-12-09T03:44:43.178Z,72.46
2022-12-09T03:47:15.328Z,72.50
2022-12-09T03:49:47.148Z,72.49
2022-12-09T03:52:26.475Z,72.45
2022-12-09T03:55:03.038Z,72.42
2022-12-09T03:57:37.937Z,72.46
2022-12-09T04:00:12.144Z,72.52
2022-12-09T04:02:44.561Z,72.56
2022-12-09T04:05:16.397Z,72.66
2022-12-09T04:07:48.142Z,72.71
2022-12-09T04:10:20.166Z,72.89
2022-12-09T04:12:52.097Z,72.87
2022-12-09T04:15:24.260Z,72.85
2022-12-09T04:17:55.888Z,72.69
2022-12-09T04:20:27.985Z,72.69
2022-12-09T04:22:59.762Z,72.75
2022-12-09T04:25:31.318Z,72.63
2022-12-09T04:28:02.908Z,72.76
2022-12-09T04:30:34.870Z,72.70
2022-12-09T04:33:06.819Z,72.71
2022-12-09T04:35:38.497Z,72.69
2022-12-09T04:38:10.227Z,72.57
2022-12-09T04:40:42.203Z,72.56
2022-12-09T04:43:13.993Z,72.61
2022-12-09T04:45:45.837Z,72.51
2022-12-09T04:48:17.459Z,72.61
2022-12-09T04:50:49.010Z,72.64
2022-12-09T04:53:21.010Z,72.62
2022-12-09T04:55:59.484Z,72.65
2022-12-09T04:58:31.879Z,72.91
2022-12-09T05:01:09.041Z,72.96
2022-12-09T05:03:41.389Z,73.05
2022-12-09T05:06:14.822Z,73.28
2022-12-09T05:08:47.126Z,73.17
2022-12-09T05:11:20.775Z,73.03
2022-12-09T05:13:53.226Z,73.10
2022-12-09T05:16:25.070Z,72.93
2022-12-09T05:18:57.080Z,73.00
2022-12-09T05:21:29.288Z,72.74
2022-12-09T05:24:02.563Z,72.72
2022-12-09T05:26:34.500Z,72.83
2022-12-09T05:29:07.046Z,72.91
2022-12-09T05:31:39.078Z,72.83
2022-12-09T05:34:10.945Z,72.96
2022-12-09T05:36:42.783Z,73.03
2022-12-09T05:39:14.638Z,72.92
2022-12-09T05:41:47.928Z,72.97
2022-12-09T05:44:19.527Z,73.00
2022-12-09T05:46:51.391Z,73.02
2022-12-09T05:49:23.781Z,72.99
2022-12-09T05:51:55.968Z,72.84
2022-12-09T05:54:28.042Z,72.96
2022-12-09T05:57:01.308Z,73.19
2022-12-09T05:59:33.368Z,73.32
2022-12-09T06:02:09.773Z,73.30
2022-12-09T06:04:42.057Z,73.36
2022-12-09T06:07:14.174Z,73.13
2022-12-09T06:09:46.031Z,73.19
2022-12-09T06:12:18.204Z,73.18
2022-12-09T06:14:50.013Z,73.11
2022-12-09T06:17:21.680Z,73.02
2022-12-09T06:19:53.373Z,72.89
2022-12-09T06:22:25.313Z,72.92
2022-12-09T06:24:57.527Z,72.85
2022-12-09T06:27:29.362Z,72.81
2022-12-09T06:30:01.248Z,72.89
2022-12-09T06:32:33.091Z,72.86
2022-12-09T06:35:07.609Z,72.81
2022-12-09T06:37:39.876Z,72.76
2022-12-09T06:40:13.833Z,72.80
2022-12-09T06:42:45.755Z,72.87
2022-12-09T06:45:17.553Z,72.90
2022-12-09T06:47:50.050Z,72.94
2022-12-09T06:50:22.160Z,73.08
2022-12-09T06:52:54.469Z,73.17
2022-12-09T06:55:26.789Z,73.23
2022-12-09T06:57:59.188Z,73.19
2022-12-09T07:00:32.567Z,73.31
2022-12-09T07:03:04.211Z,73.42
2022-12-09T07:05:38.103Z,73.37
2022-12-09T07:08:10.329Z,73.36
2022-12-09T07:10:49.107Z,73.26
2022-12-09T07:13:23.530Z,73.13
2022-12-09T07:15:55.374Z,73.11
2022-12-09T07:18:27.599Z,72.88
2022-12-09T07:20:59.305Z,73.02
2022-12-09T07:23:30.856Z,72.86
2022-12-09T07:26:05.507Z,72.90
2022-12-09T07:28:39.351Z,72.96
2022-12-09T07:31:20.482Z,72.91
2022-12-09T07:33:53.520Z,72.95
2022-12-09T07:36:27.948Z,72.95
2022-12-09T07:39:01.026Z,72.90
2022-12-09T07:41:33.139Z,72.94
2022-12-09T07:44:05.455Z,72.90
2022-12-09T07:46:37.985Z,73.00
2022-12-09T07:49:11.911Z,73.17
2022-12-09T07:51:44.621Z,73.24
2022-12-09T07:54:19.116Z,73.34
2022-12-09T07:56:51.255Z,73.22
2022-12-09T07:59:23.572Z,73.21
2022-12-09T08:01:57.787Z,73.31
2022-12-09T08:04:31.803Z,73.30
2022-12-09T08:07:03.950Z,73.09
2022-12-09T08:09:36.764Z,73.07
2022-12-09T08:12:09.283Z,73.10
2022-12-09T08:14:41.078Z,72.97
2022-12-09T08:17:12.788Z,72.89
2022-12-09T08:19:45.118Z,72.91
2022-12-09T08:22:17.237Z,73.05
2022-12-09T08:24:48.976Z,73.11
2022-12-09T08:27:20.638Z,73.09
2022-12-09T08:29:52.340Z,73.17
2022-12-09T08:32:24.124Z,73.10
2022-12-09T08:34:56.231Z,73.17
2022-12-09T08:37:28.597Z,73.19
2022-12-09T08:40:00.334Z,73.25
2022-12-09T08:42:33.576Z,73.39
2022-12-09T08:45:04.190Z,73.25
2022-12-09T08:47:36.315Z,73.25
2022-12-09T08:50:11.292Z,73.40
2022-12-09T08:52:43.701Z,73.44
2022-12-09T08:55:15.320Z,73.49
2022-12-09T08:57:47.094Z,73.34
2022-12-09T09:00:21.038Z,73.41
2022-12-09T09:02:53.042Z,73.30
2022-12-09T09:05:24.987Z,73.36
2022-12-09T09:07:56.921Z,73.37
2022-12-09T09:10:29.863Z,73.21
2022-12-09T09:13:02.289Z,73.24
2022-12-09T09:15:34.333Z,73.22
2022-12-09T09:18:06.369Z,73.09
2022-12-09T09:20:38.335Z,73.11
2022-12-09T09:23:10.092Z,73.33
2022-12-09T09:25:44.883Z,73.38
2022-12-09T09:28:16.879Z,73.16
2022-12-09T09:30:50.504Z,73.03
2022-12-09T09:33:21.078Z,73.26
2022-12-09T09:35:58.567Z,73.18
2022-12-09T09:38:32.575Z,72.99
2022-12-09T09:41:03.086Z,73.07
2022-12-09T09:43:39.616Z,72.91
2022-12-09T09:46:18.345Z,73.03
2022-12-09T09:48:52.204Z,72.84
2022-12-09T09:51:24.814Z,72.71
2022-12-09T09:53:56.615Z,72.66
2022-12-09T09:56:35.333Z,72.61
2022-12-09T09:59:19.509Z,72.55
2022-12-09T10:02:00.334Z,72.66
2022-12-09T10:04:45.211Z,72.73
2022-12-09T10:07:24.237Z,72.53
2022-12-09T10:10:07.337Z,72.47
2022-12-09T10:12:45.209Z,72.52
2022-12-09T10:15:21.605Z,72.56
2022-12-09T10:18:00.706Z,72.30
2022-12-09T10:20:34.958Z,72.43
2022-12-09T10:23:12.206Z,72.36
2022-12-09T10:25:52.047Z,72.28
2022-12-09T10:28:28.467Z,72.04
2022-12-09T10:31:00.743Z,72.01
2022-12-09T10:33:36.329Z,71.82
2022-12-09T10:36:20.794Z,71.77
2022-12-09T10:38:52.654Z,71.86
2022-12-09T10:41:57.244Z,71.71
2022-12-09T10:44:29.718Z,71.49
2022-12-09T10:47:04.490Z,71.61
2022-12-09T10:49:37.343Z,71.60
2022-12-09T10:52:10.000Z,71.57
2022-12-09T10:54:44.906Z,71.46
2022-12-09T10:57:29.748Z,71.30
2022-12-09T11:00:09.460Z,71.18
2022-12-09T11:02:53.053Z,71.11
2022-12-09T11:05:30.894Z,70.92
2022-12-09T11:08:04.188Z,70.75
2022-12-09T11:10:36.520Z,70.87
2022-12-09T11:13:16.005Z,70.99
2022-12-09T11:15:54.410Z,70.99
2022-12-09T11:18:31.207Z,70.77
2022-12-09T11:21:05.842Z,70.94
2022-12-09T11:23:38.478Z,70.80
2022-12-09T11:26:25.248Z,70.84
2022-12-09T11:29:06.027Z,70.77
2022-12-09T11:31:42.803Z,70.39
2022-12-09T11:34:24.108Z,70.54
2022-12-09T11:36:58.426Z,70.40
2022-12-09T11:39:32.116Z,70.27
2022-12-09T11:42:19.399Z,70.41
2022-12-09T11:44:57.706Z,70.39
2022-12-09T11:47:57.141Z,70.21
2022-12-09T11:50:31.278Z,70.32
2022-12-09T11:53:23.935Z,70.37
2022-12-09T11:56:00.128Z,70.48
2022-12-09T11:58:37.139Z,70.09
2022-12-09T12:01:13.972Z,70.53
2022-12-09T12:03:49.730Z,70.48
2022-12-09T12:06:25.597Z,70.27
2022-12-09T12:09:02.109Z,70.08
2022-12-09T12:11:38.438Z,69.46
2022-12-09T12:14:17.810Z,69.64
2022-12-09T12:16:58.378Z,69.95
2022-12-09T12:19:34.994Z,69.41
2022-12-09T12:22:27.339Z,69.16
2022-12-09T12:25:18.295Z,69.07
2022-12-09T12:28:10.144Z,69.28
2022-12-09T12:30:48.279Z,69.20
2022-12-09T12:34:15.990Z,68.96
2022-12-09T12:36:46.716Z,68.70
2022-12-09T12:39:30.256Z,68.79
2022-12-09T12:42:13.377Z,69.18
2022-12-09T12:45:13.138Z,69.29
2022-12-09T12:47:51.361Z,69.27
2022-12-09T12:50:43.592Z,69.24
2022-12-09T12:53:25.439Z,69.17
2022-12-09T12:56:03.906Z,69.22
2022-12-09T12:58:59.864Z,69.26
2022-12-09T13:01:34.992Z,69.19
2022-12-09T13:04:21.924Z,69.28
2022-12-09T13:07:01.564Z,69.27
2022-12-09T13:09:39.683Z,69.16
2022-12-09T13:12:16.773Z,69.17
2022-12-09T13:14:54.570Z,69.15
2022-12-09T13:17:29.815Z,69.12
2022-12-09T13:20:05.400Z,69.27
2022-12-09T13:22:47.493Z,69.22
2022-12-09T13:25:29.825Z,69.25
2022-12-09T13:28:07.553Z,69.22
2022-12-09T13:30:49.750Z,69.13
2022-12-09T13:33:54.727Z,69.15
2022-12-09T13:36:38.485Z,69.24
2022-12-09T13:39:12.952Z,69.22
2022-12-09T13:42:04.658Z,69.16
2022-12-09T13:44:39.389Z,69.19
2022-12-09T13:47:37.510Z,69.35
2022-12-09T13:50:23.575Z,69.25
2022-12-09T13:52:59.261Z,69.34
2022-12-09T13:55:47.759Z,69.44
2022-12-09T13:58:57.257Z,69.42
2022-12-09T14:01:36.054Z,69.51
2022-12-09T14:04:16.768Z,69.51
2022-12-09T14:06:57.416Z,69.28
2022-12-09T14:09:37.564Z,69.55
2022-12-09T14:12:11.671Z,69.62
2022-12-09T14:15:01.535Z,69.56
2022-12-09T14:18:03.655Z,69.42
2022-12-09T14:20:38.581Z,69.78
2022-12-09T14:23:26.527Z,69.74
2022-12-09T14:26:05.619Z,69.70
2022-12-09T14:29:01.023Z,69.68
2022-12-09T14:31:52.150Z,69.59
2022-12-09T14:34:34.355Z,69.57
2022-12-09T14:37:26.976Z,69.56
2022-12-09T14:40:04.140Z,69.53
2022-12-09T14:42:46.157Z,69.64
2022-12-09T14:45:30.357Z,69.78
2022-12-09T14:48:03.174Z,69.74
2022-12-09T14:50:38.472Z,69.93
2022-12-09T14:53:21.384Z,69.97
2022-12-09T14:55:53.453Z,69.86
2022-12-09T14:58:26.189Z,70.19
2022-12-09T15:01:03.447Z,69.97
2022-12-09T15:03:43.067Z,70.18
2022-12-09T15:06:20.838Z,70.37
2022-12-09T15:08:57.144Z,70.52
2022-12-09T15:11:34.123Z,70.75
2022-12-09T15:14:28.690Z,70.92
2022-12-09T15:17:00.595Z,70.84
2022-12-09T15:22:31.404Z,71.09
2022-12-09T15:25:04.423Z,71.25
2022-12-09T15:27:36.002Z,71.31
2022-12-09T15:30:23.981Z,71.40
2022-12-09T15:32:55.689Z,71.50
2022-12-09T15:35:29.177Z,71.50
2022-12-09T15:38:06.259Z,71.53
2022-12-09T15:40:59.362Z,71.46
2022-12-09T15:43:32.188Z,71.54
2022-12-09T15:46:04.334Z,71.46
2022-12-09T15:48:39.013Z,71.59
2022-12-09T15:51:17.076Z,71.62
2022-12-09T15:53:55.305Z,71.64
2022-12-09T15:56:32.403Z,71.95
2022-12-09T15:59:10.806Z,71.89
2022-12-09T16:01:47.982Z,72.75
2022-12-09T16:04:23.126Z,72.64
2022-12-09T16:06:56.898Z,72.40
2022-12-09T16:09:28.538Z,73.00
2022-12-09T16:12:00.081Z,72.83
2022-12-09T16:14:44.568Z,72.74
2022-12-09T16:17:23.330Z,72.65
2022-12-09T16:19:55.417Z,72.70
2022-12-09T16:22:30.981Z,72.85
2022-12-09T16:25:14.691Z,72.83
2022-12-09T16:27:51.568Z,72.83
2022-12-09T16:30:25.619Z,73.01
2022-12-09T16:32:59.246Z,72.98
2022-12-09T16:35:29.878Z,73.05
2022-12-09T16:38:19.386Z,73.03
2022-12-09T16:41:09.069Z,73.09
2022-12-09T16:43:55.715Z,73.05
2022-12-09T16:46:49.718Z,73.13
2022-12-09T16:49:21.290Z,73.10
2022-12-09T16:51:52.825Z,73.03
2022-12-09T16:54:24.384Z,73.11
2022-12-09T16:56:58.376Z,73.11
2022-12-09T16:59:37.050Z,73.11
2022-12-09T17:02:19.319Z,73.03
2022-12-09T17:04:52.420Z,72.98
2022-12-09T17:07:23.914Z,73.13
2022-12-09T17:09:56.053Z,73.08
2022-12-09T17:12:27.570Z,73.13
2022-12-09T17:14:59.153Z,72.92
2022-12-09T17:17:30.719Z,72.99
2022-12-09T17:20:03.516Z,73.08
2022-12-09T17:22:35.413Z,72.99
2022-12-09T17:25:08.395Z,73.07
2022-12-09T17:27:40.274Z,73.11
2022-12-09T17:30:14.204Z,73.02
2022-12-09T17:32:45.795Z,73.10
2022-12-09T17:35:18.061Z,73.00
2022-12-09T17:37:49.962Z,73.12
2022-12-09T17:40:21.466Z,73.01
2022-12-09T17:42:53.030Z,73.10
2022-12-09T17:45:24.584Z,73.19
2022-12-09T17:47:56.148Z,73.22
2022-12-09T17:50:27.848Z,73.27
2022-12-09T17:52:59.402Z,73.24
2022-12-09T17:55:30.944Z,73.08
2022-12-09T17:58:02.455Z,73.14
2022-12-09T18:00:34.457Z,73.27
2022-12-09T18:03:06.114Z,73.23
2022-12-09T18:05:40.166Z,73.28
2022-12-09T18:08:11.763Z,73.35
2022-12-09T18:10:44.178Z,73.36
2022-12-09T18:13:16.109Z,73.39
2022-12-09T18:15:52.649Z,73.32
2022-12-09T18:18:26.133Z,73.44
2022-12-09T18:21:01.614Z,73.32
2022-12-09T18:23:33.354Z,73.29
2022-12-09T18:26:08.342Z,73.35
2022-12-09T18:28:40.313Z,73.48
2022-12-09T18:31:14.393Z,73.31
2022-12-09T18:33:46.420Z,73.44
2022-12-09T18:36:19.816Z,73.47
2022-12-09T18:38:51.463Z,73.35
2022-12-09T18:41:25.148Z,73.23
2022-12-09T18:43:58.580Z,73.51
2022-12-09T18:46:31.766Z,73.34
2022-12-09T18:49:07.284Z,73.45
2022-12-09T18:51:39.806Z,73.46
2022-12-09T18:54:15.499Z,73.58
2022-12-09T18:56:47.639Z,73.53
2022-12-09T18:59:19.804Z,73.46
2022-12-09T19:01:52.272Z,73.46
2022-12-09T19:04:25.991Z,73.53
2022-12-09T19:07:00.058Z,73.67
2022-12-09T19:09:34.925Z,73.75
2022-12-09T19:12:38.281Z,73.73
2022-12-09T19:14:59.768Z,73.82
2022-12-09T19:17:32.638Z,73.66
2022-12-09T19:20:04.571Z,73.68
2022-12-09T19:22:36.245Z,73.77
2022-12-09T19:25:09.001Z,73.72
2022-12-09T19:27:40.752Z,73.65
2022-12-09T19:30:14.632Z,73.76
2022-12-09T19:32:53.783Z,73.77
2022-12-09T19:35:25.516Z,73.84
2022-12-09T19:38:01.192Z,73.91
2022-12-09T19:40:33.290Z,73.89
2022-12-09T19:43:04.967Z,73.84
2022-12-09T19:45:37.002Z,73.86
2022-12-09T19:48:08.943Z,73.85
2022-12-09T19:50:40.395Z,73.92
2022-12-09T19:53:12.183Z,73.95
2022-12-09T19:55:43.677Z,73.97
2022-12-09T19:58:15.236Z,74.04
2022-12-09T20:00:46.835Z,74.04
2022-12-09T20:03:18.631Z,74.05
2022-12-09T20:05:55.750Z,73.98
2022-12-09T20:08:27.238Z,74.07
2022-12-09T20:10:58.769Z,74.00
2022-12-09T20:13:32.128Z,74.03
2022-12-09T20:16:05.984Z,74.02
2022-12-09T20:18:38.159Z,73.95
2022-12-09T20:21:12.099Z,74.01
2022-12-09T20:23:45.068Z,74.03
2022-12-09T20:26:19.237Z,74.10
2022-12-09T20:28:52.554Z,74.08
2022-12-09T20:31:26.965Z,73.95
2022-12-09T20:34:00.628Z,74.07
2022-12-09T20:36:31.431Z,74.14
2022-12-09T20:39:05.891Z,74.03
2022-12-09T20:41:37.375Z,74.07
2022-12-09T20:44:10.133Z,74.22
2022-12-09T20:46:45.345Z,74.14
2022-12-09T20:49:17.358Z,74.17
2022-12-09T20:51:49.152Z,74.25
2022-12-09T20:54:20.756Z,74.19
2022-12-09T20:56:53.059Z,74.27
2022-12-09T20:59:25.166Z,74.14
2022-12-09T21:01:56.752Z,74.13
2022-12-09T21:04:28.370Z,74.34
2022-12-09T21:06:59.890Z,74.41
2022-12-09T21:09:31.425Z,74.40
2022-12-09T21:12:03.097Z,74.38
2022-12-09T21:14:36.227Z,74.34
2022-12-09T21:17:07.741Z,74.20
2022-12-09T21:19:39.208Z,74.25
2022-12-09T21:22:10.851Z,74.18
2022-12-09T21:24:42.387Z,74.24
2022-12-09T21:27:13.866Z,74.13
2022-12-09T21:29:45.397Z,74.09
2022-12-09T21:32:16.873Z,74.28
2022-12-09T21:34:48.398Z,74.28
2022-12-09T21:37:19.908Z,74.26
2022-12-09T21:39:51.604Z,74.40
2022-12-09T21:42:23.332Z,74.37
2022-12-09T21:44:54.850Z,74.35
2022-12-09T21:47:26.477Z,74.32
2022-12-09T21:49:57.948Z,74.43
2022-12-09T21:52:30.277Z,74.47
2022-12-09T21:55:02.192Z,74.43
2022-12-09T21:57:36.717Z,74.40
2022-12-09T22:00:11.229Z,74.60
2022-12-09T22:02:44.356Z,74.61
2022-12-09T22:05:16.376Z,74.49
2022-12-09T22:07:50.954Z,74.50
2022-12-09T22:10:22.618Z,74.61
2022-12-09T22:12:54.184Z,74.59
2022-12-09T22:15:25.697Z,74.50
2022-12-09T22:17:57.306Z,74.48
2022-12-09T22:23:20.403Z,74.58
2022-12-09T22:25:51.936Z,74.55
2022-12-09T22:28:23.428Z,74.44
2022-12-09T22:30:55.019Z,74.60
2022-12-09T22:33:26.553Z,74.61
2022-12-09T22:36:03.084Z,74.66
2022-12-09T22:38:35.372Z,74.68
2022-12-09T22:41:08.848Z,74.61
2022-12-09T22:43:41.359Z,74.82
2022-12-09T22:46:15.706Z,74.66
2022-12-09T22:48:47.671Z,74.71
2022-12-09T22:51:21.704Z,74.65
2022-12-09T22:53:54.789Z,74.68
2022-12-09T22:56:27.355Z,74.72
2022-12-09T22:59:00.034Z,74.59
2022-12-09T23:01:35.530Z,74.66
2022-12-09T23:04:08.645Z,74.72
2022-12-09T23:06:41.814Z,74.70
2022-12-09T23:09:17.473Z,74.64
2022-12-09T23:11:49.765Z,74.70
2022-12-09T23:14:21.911Z,74.72
2022-12-09T23:16:53.370Z,74.84
2022-12-09T23:19:24.948Z,74.77
2022-12-09T23:21:56.565Z,74.76
2022-12-09T23:24:28.079Z,74.86
2022-12-09T23:26:59.608Z,74.88
2022-12-09T23:29:31.079Z,74.75
2022-12-09T23:32:02.538Z,74.84
2022-12-09T23:34:34.167Z,74.79
2022-12-09T23:37:05.715Z,74.92
2022-12-09T23:39:37.227Z,74.90
2022-12-09T23:42:08.929Z,75.00
2022-12-09T23:44:40.726Z,74.90
2022-12-09T23:47:12.374Z,74.80
2022-12-09T23:49:43.977Z,74.79
2022-12-09T23:52:15.469Z,74.91
2022-12-09T23:54:46.974Z,74.81
2022-12-09T23:57:18.432Z,74.92
2022-12-09T23:59:50.264Z,74.92
